Time;durP1;ratioP1;P1;durP2;ratioP2;P2;SDS_P1;SDS_P2;PMS_P1;PMS_P2;Temp;Humidity;BMP_temperature;BMP_pressure;BME280_temperature;BME280_humidity;BME280_pressure;Samples;Min_cycle;Max_cycle;Signal;HPM_P1;HPM_P2
2022/02/17 00:01:21;;;;;;;18.00;10.20;;;3.40;83.30;;;;;;1948314;74;21007;-46
2022/02/17 00:03:51;;;;;;;12.53;8.58;;;3.40;83.10;;;;;;1948300;74;21096;-47
2022/02/17 00:06:20;;;;;;;17.02;9.50;;;3.40;83.30;;;;;;1948251;74;21054;-46
2022/02/17 00:08:50;;;;;;;18.17;9.30;;;3.30;83.50;;;;;;1948387;74;21163;-47
2022/02/17 00:11:19;;;;;;;15.45;8.75;;;3.30;83.50;;;;;;1948374;74;20999;-47
2022/02/17 00:13:48;;;;;;;14.28;8.93;;;3.40;83.50;;;;;;1948288;73;21019;-47
2022/02/17 00:16:18;;;;;;;13.93;8.63;;;3.40;83.50;;;;;;1948377;74;21035;-47
2022/02/17 00:18:47;;;;;;;13.88;8.65;;;3.40;83.40;;;;;;1948323;74;21019;-47
2022/02/17 00:21:16;;;;;;;14.07;9.25;;;3.40;83.60;;;;;;1948253;74;21015;-47
2022/02/17 00:23:45;;;;;;;12.13;7.78;;;3.40;83.70;;;;;;1948339;74;21457;-46
2022/02/17 00:26:15;;;;;;;12.98;8.08;;;3.40;83.50;;;;;;1948360;74;21026;-46
2022/02/17 00:28:45;;;;;;;12.33;9.00;;;3.40;83.60;;;;;;1948375;74;21046;-46
2022/02/17 00:31:14;;;;;;;13.95;8.65;;;3.40;83.70;;;;;;1948225;74;21129;-47
2022/02/17 00:33:44;;;;;;;14.87;9.15;;;3.40;83.80;;;;;;1948345;73;21096;-47
2022/02/17 00:36:13;;;;;;;17.55;10.23;;;3.40;83.80;;;;;;1948242;73;21026;-47
2022/02/17 00:38:42;;;;;;;13.65;8.75;;;3.40;83.90;;;;;;1948224;73;21096;-46
2022/02/17 00:41:12;;;;;;;17.45;8.93;;;3.40;83.90;;;;;;1948404;74;21131;-47
2022/02/17 00:43:43;;;;;;;15.88;9.80;;;3.40;83.90;;;;;;1948442;73;21462;-47
2022/02/17 00:46:12;;;;;;;15.78;8.95;;;3.40;83.80;;;;;;1948359;73;21023;-47
2022/02/17 00:48:41;;;;;;;9.40;7.47;;;3.50;84.00;;;;;;1948517;74;21015;-46
2022/02/17 00:51:10;;;;;;;12.78;8.55;;;3.50;83.90;;;;;;1948375;73;21136;-47
2022/02/17 00:53:40;;;;;;;11.48;7.58;;;3.40;81.80;;;;;;1948519;74;21151;-46
2022/02/17 00:56:10;;;;;;;15.68;8.40;;;3.30;82.90;;;;;;1948482;74;20995;-47
2022/02/17 00:58:39;;;;;;;15.58;8.35;;;3.30;83.70;;;;;;1948490;74;21112;-47
2022/02/17 01:01:10;;;;;;;13.08;7.80;;;3.30;84.00;;;;;;1945325;74;21108;-46
2022/02/17 01:03:40;;;;;;;13.72;8.28;;;3.30;84.20;;;;;;1948489;74;21038;-47
2022/02/17 01:06:10;;;;;;;15.78;8.88;;;3.30;84.10;;;;;;1948403;73;20999;-47
2022/02/17 01:08:39;;;;;;;11.38;7.65;;;3.40;84.10;;;;;;1948398;73;21018;-47
2022/02/17 01:11:09;;;;;;;11.85;8.20;;;3.40;84.10;;;;;;1948313;74;20994;-47
2022/02/17 01:13:39;;;;;;;13.58;9.20;;;3.40;83.70;;;;;;1948509;74;21085;-47
2022/02/17 01:16:08;;;;;;;10.70;7.30;;;3.40;83.00;;;;;;1948363;74;21020;-47
2022/02/17 01:18:38;;;;;;;13.93;9.23;;;3.30;83.60;;;;;;1948428;73;21108;-47
2022/02/17 01:21:09;;;;;;;13.10;8.20;;;3.30;83.90;;;;;;1946950;73;21037;-47
2022/02/17 01:23:38;;;;;;;12.15;7.75;;;3.30;84.20;;;;;;1948395;73;21014;-47
2022/02/17 01:26:07;;;;;;;12.90;9.05;;;3.30;84.10;;;;;;1948430;73;21018;-47
2022/02/17 01:28:38;;;;;;;14.65;9.40;;;3.30;84.40;;;;;;1946205;74;21073;-47
2022/02/17 01:31:08;;;;;;;12.95;8.25;;;3.30;84.40;;;;;;1948340;73;21546;-48
2022/02/17 01:33:38;;;;;;;12.33;8.18;;;3.40;83.70;;;;;;1948540;74;21042;-46
2022/02/17 01:36:10;;;;;;;12.58;8.60;;;3.30;84.00;;;;;;1946603;74;21030;-46
2022/02/17 01:38:41;;;;;;;16.15;8.48;;;3.30;83.90;;;;;;1948498;74;21026;-46
2022/02/17 01:41:11;;;;;;;11.20;6.95;;;3.20;82.70;;;;;;1957028;73;21074;-48
2022/02/17 01:43:41;;;;;;;16.73;9.03;;;3.10;83.00;;;;;;1958704;73;21097;-47
2022/02/17 01:46:10;;;;;;;14.33;8.38;;;3.00;84.40;;;;;;1958624;73;20990;-46
2022/02/17 01:48:39;;;;;;;14.53;8.98;;;3.00;84.10;;;;;;1958747;73;21092;-47
2022/02/17 01:51:09;;;;;;;14.87;10.08;;;3.00;84.50;;;;;;1958713;73;21095;-47
2022/02/17 01:53:40;;;;;;;14.90;9.03;;;3.10;84.70;;;;;;1958360;73;21033;-47
2022/02/17 01:56:09;;;;;;;11.25;8.38;;;3.20;84.70;;;;;;1958630;73;20998;-46
2022/02/17 01:58:39;;;;;;;14.35;8.25;;;3.30;84.80;;;;;;1958645;73;21027;-47
2022/02/17 02:01:10;;;;;;;11.48;7.45;;;3.30;84.80;;;;;;1957068;73;21050;-47
2022/02/17 02:03:39;;;;;;;11.10;7.70;;;3.40;84.80;;;;;;1958834;73;21132;-46
2022/02/17 02:06:09;;;;;;;11.22;7.85;;;3.40;84.60;;;;;;1958734;73;21015;-47
2022/02/17 02:08:57;;;;;;;10.90;7.70;;;3.50;84.70;;;;;;1958584;73;21023;-46
2022/02/17 02:11:28;;;;;;;11.28;7.72;;;3.50;84.70;;;;;;1923939;73;21485;-47
2022/02/17 02:13:59;;;;;;;15.25;7.65;;;3.60;84.50;;;;;;1957815;73;21029;-47
2022/02/17 02:16:30;;;;;;;15.32;8.53;;;3.60;84.60;;;;;;1958050;73;21018;-47
2022/02/17 02:19:00;;;;;;;12.65;8.13;;;3.60;84.80;;;;;;1958699;73;21084;-47
2022/02/17 02:21:30;;;;;;;9.75;8.00;;;3.60;84.50;;;;;;1958648;73;21346;-47
2022/02/17 02:24:00;;;;;;;13.88;8.73;;;3.60;84.80;;;;;;1958607;73;21018;-46
2022/02/17 02:26:30;;;;;;;13.60;8.43;;;3.60;84.10;;;;;;1958699;73;21092;-47
2022/02/17 02:29:01;;;;;;;14.55;8.88;;;3.50;84.10;;;;;;1958779;73;21018;-47
2022/02/17 02:31:30;;;;;;;16.70;9.18;;;3.40;84.20;;;;;;1958697;73;21018;-47
2022/02/17 02:33:59;;;;;;;14.55;9.18;;;3.40;84.10;;;;;;1958819;73;21026;-46
2022/02/17 02:36:30;;;;;;;18.87;8.48;;;3.40;84.30;;;;;;1958713;73;21116;-46
2022/02/17 02:39:00;;;;;;;17.77;9.48;;;3.30;84.50;;;;;;1958846;73;21103;-47
2022/02/17 02:41:37;;;;;;;16.80;8.85;;;3.30;84.60;;;;;;1947312;73;21087;-46
2022/02/17 02:44:07;;;;;;;16.62;10.78;;;3.30;84.50;;;;;;1946435;74;21023;-47
2022/02/17 02:46:38;;;;;;;16.02;9.75;;;3.20;84.60;;;;;;1945970;73;21038;-47
2022/02/17 02:49:08;;;;;;;18.40;10.08;;;3.20;84.90;;;;;;1946510;73;21100;-46
2022/02/17 02:51:38;;;;;;;15.10;9.30;;;3.20;85.10;;;;;;1946599;74;21034;-47
2022/02/17 02:54:08;;;;;;;18.60;10.13;;;3.30;85.20;;;;;;1946427;74;21026;-47
2022/02/17 02:56:39;;;;;;;14.43;9.73;;;3.30;85.30;;;;;;1946046;74;21041;-47
2022/02/17 02:59:08;;;;;;;23.30;10.53;;;3.40;85.40;;;;;;1946317;73;21027;-46
2022/02/17 03:01:38;;;;;;;19.20;11.05;;;3.40;85.40;;;;;;1946380;74;21019;-47
2022/02/17 03:04:07;;;;;;;24.18;11.05;;;3.50;85.30;;;;;;1946438;74;21093;-46
2022/02/17 03:06:38;;;;;;;19.17;11.25;;;3.40;85.30;;;;;;1890472;76;21023;-47
2022/02/17 03:09:08;;;;;;;20.88;10.00;;;3.40;85.50;;;;;;1890196;75;21109;-46
2022/02/17 03:11:37;;;;;;;21.35;9.73;;;3.50;85.60;;;;;;1890280;76;21028;-47
2022/02/17 03:14:07;;;;;;;16.15;9.98;;;3.50;85.50;;;;;;1890279;76;21038;-46
2022/02/17 03:16:37;;;;;;;14.70;8.45;;;3.50;85.60;;;;;;1890328;76;21074;-47
2022/02/17 03:19:07;;;;;;;15.20;8.70;;;3.50;85.60;;;;;;1890258;76;21026;-47
2022/02/17 03:21:37;;;;;;;12.90;9.03;;;3.50;85.50;;;;;;1890224;76;21015;-47
2022/02/17 03:24:06;;;;;;;14.58;8.28;;;3.50;85.60;;;;;;1890206;76;21026;-48
2022/02/17 03:26:37;;;;;;;13.90;7.67;;;3.40;84.90;;;;;;1855595;77;21126;-47
2022/02/17 03:29:07;;;;;;;13.08;8.78;;;3.40;85.20;;;;;;1856803;76;21050;-47
2022/02/17 03:31:37;;;;;;;15.55;9.30;;;3.30;85.40;;;;;;1856761;77;21097;-47
2022/02/17 03:34:08;;;;;;;19.65;12.58;;;3.30;85.60;;;;;;1856826;77;21126;-46
2022/02/17 03:36:39;;;;;;;24.47;11.45;;;3.40;85.80;;;;;;1858303;76;21132;-47
2022/02/17 03:39:08;;;;;;;15.10;10.70;;;3.40;86.00;;;;;;1890236;75;21003;-46
2022/02/17 03:41:43;;;;;;;17.73;10.60;;;3.40;85.90;;;;;;1867782;76;21097;-46
2022/02/17 03:44:14;;;;;;;25.60;13.60;;;3.50;86.40;;;;;;1914432;75;21100;-47
2022/02/17 03:46:45;;;;;;;24.00;14.03;;;3.50;86.10;;;;;;1905879;75;20994;-47
2022/02/17 03:49:15;;;;;;;34.05;18.17;;;3.50;85.70;;;;;;1952204;73;21125;-46
2022/02/17 03:51:46;;;;;;;29.35;17.70;;;3.40;85.20;;;;;;1951662;73;21491;-47
2022/02/17 03:54:15;;;;;;;28.12;15.70;;;3.30;85.50;;;;;;1952322;73;21112;-47
2022/02/17 03:56:46;;;;;;;43.25;19.52;;;3.30;85.90;;;;;;1950131;73;21171;-47
2022/02/17 03:59:26;;;;;;;32.90;16.00;;;3.30;86.20;;;;;;1948392;73;21130;-47
2022/02/17 04:01:55;;;;;;;22.40;15.53;;;3.30;86.20;;;;;;1952230;73;21019;-47
2022/02/17 04:04:25;;;;;;;24.43;14.33;;;3.40;86.50;;;;;;1952274;73;21108;-47
2022/02/17 04:06:55;;;;;;;21.12;14.13;;;3.40;86.30;;;;;;1952423;73;21073;-47
2022/02/17 04:09:26;;;;;;;26.62;12.47;;;3.50;86.50;;;;;;1952312;73;21088;-47
2022/02/17 04:11:56;;;;;;;17.87;11.30;;;3.50;86.40;;;;;;1952297;73;21027;-47
2022/02/17 04:14:27;;;;;;;21.55;11.08;;;3.40;86.00;;;;;;1952307;73;21575;-46
2022/02/17 04:16:56;;;;;;;17.02;10.72;;;3.40;86.70;;;;;;1952478;73;21034;-47
2022/02/17 04:19:33;;;;;;;21.35;11.63;;;3.40;86.50;;;;;;1951307;73;21115;-46
2022/02/17 04:22:23;;;;;;;21.05;9.60;;;3.40;86.30;;;;;;1948562;73;21077;-47
2022/02/17 04:25:03;;;;;;;21.15;13.50;;;3.40;86.00;;;;;;1949077;73;21058;-47
2022/02/17 04:27:33;;;;;;;20.10;12.03;;;3.40;86.00;;;;;;1952502;73;21066;-47
2022/02/17 04:30:07;;;;;;;22.93;12.43;;;3.20;84.90;;;;;;1952314;73;21456;-47
2022/02/17 04:32:37;;;;;;;18.30;11.70;;;3.10;85.90;;;;;;1952424;73;21104;-46
2022/02/17 04:35:07;;;;;;;30.15;11.60;;;3.10;86.50;;;;;;1952496;73;20994;-47
2022/02/17 04:37:36;;;;;;;17.23;10.82;;;3.10;86.70;;;;;;1952397;73;21100;-47
2022/02/17 04:40:07;;;;;;;19.50;11.38;;;3.20;86.70;;;;;;1952365;73;21019;-46
2022/02/17 04:42:38;;;;;;;17.20;11.43;;;3.20;86.70;;;;;;1938100;73;21050;-47
2022/02/17 04:45:08;;;;;;;18.45;10.03;;;3.20;86.80;;;;;;1935757;74;21051;-47
2022/02/17 04:47:37;;;;;;;21.73;14.47;;;3.30;87.00;;;;;;1935731;74;21023;-47
2022/02/17 04:50:07;;;;;;;18.80;12.98;;;3.30;86.80;;;;;;1935753;74;21083;-47
2022/02/17 04:52:38;;;;;;;23.10;14.65;;;3.40;86.80;;;;;;1935284;74;21027;-47
2022/02/17 04:55:09;;;;;;;16.50;11.38;;;3.40;86.70;;;;;;1935586;74;21035;-49
2022/02/17 04:57:38;;;;;;;19.17;11.50;;;3.50;87.40;;;;;;1935737;74;21102;-48
2022/02/17 05:00:08;;;;;;;21.50;13.35;;;3.50;87.00;;;;;;1935630;74;21019;-47
2022/02/17 05:02:40;;;;;;;44.53;25.27;;;3.60;87.20;;;;;;1934614;74;21112;-48
2022/02/17 05:05:11;;;;;;;41.28;21.60;;;3.60;87.20;;;;;;1934166;74;21030;-47
2022/02/17 05:07:41;;;;;;;46.10;21.65;;;3.70;86.80;;;;;;1935689;74;21097;-47
2022/02/17 05:10:10;;;;;;;31.80;18.37;;;3.60;86.90;;;;;;1935562;74;21082;-47
2022/02/17 05:12:44;;;;;;;28.30;14.60;;;3.70;87.00;;;;;;1935084;74;21184;-47
2022/02/17 05:15:14;;;;;;;34.67;16.95;;;3.70;87.10;;;;;;1935646;74;21227;-47
2022/02/17 05:17:45;;;;;;;28.17;17.55;;;3.80;87.10;;;;;;1935497;74;21162;-47
2022/02/17 05:20:16;;;;;;;26.12;16.30;;;3.90;87.20;;;;;;1935195;74;21108;-47
2022/02/17 05:22:50;;;;;;;21.83;13.93;;;3.90;87.30;;;;;;1872473;74;21015;-47
2022/02/17 05:25:21;;;;;;;24.02;14.33;;;4.00;87.20;;;;;;1934904;74;21030;-48
2022/02/17 05:28:01;;;;;;;27.95;15.15;;;4.00;87.00;;;;;;1934517;74;21073;-48
2022/02/17 05:30:41;;;;;;;23.32;14.30;;;4.10;87.30;;;;;;1933904;74;21467;-47
2022/02/17 05:33:29;;;;;;;31.10;15.65;;;4.10;86.90;;;;;;1935651;74;21038;-47
2022/02/17 05:36:18;;;;;;;27.73;15.60;;;4.10;87.00;;;;;;1930877;74;21065;-47
2022/02/17 05:38:58;;;;;;;26.15;14.50;;;4.20;87.20;;;;;;1828787;78;21107;-47
2022/02/17 05:41:29;;;;;;;37.98;16.32;;;4.30;87.10;;;;;;1934618;74;21030;-48
2022/02/17 05:43:59;;;;;;;33.33;15.68;;;4.40;87.10;;;;;;1935617;74;21027;-47
2022/02/17 05:46:28;;;;;;;30.68;17.17;;;4.40;87.00;;;;;;1935445;74;21089;-48
2022/02/17 05:48:58;;;;;;;25.97;15.60;;;4.50;87.00;;;;;;1935580;74;21576;-49
2022/02/17 05:51:28;;;;;;;16.35;11.88;;;4.50;86.90;;;;;;1935482;74;21105;-47
2022/02/17 05:53:57;;;;;;;16.62;10.95;;;4.60;86.80;;;;;;1935672;74;21016;-47
2022/02/17 05:56:26;;;;;;;21.90;10.72;;;4.70;87.00;;;;;;1935563;74;21104;-47
2022/02/17 05:58:56;;;;;;;18.02;11.18;;;4.70;87.00;;;;;;1935651;74;21097;-47
2022/02/17 06:01:25;;;;;;;31.68;13.05;;;4.80;87.20;;;;;;1935793;74;21025;-47
2022/02/17 06:03:55;;;;;;;23.02;11.73;;;4.90;87.00;;;;;;1935602;74;21031;-47
2022/02/17 06:06:24;;;;;;;25.32;11.60;;;5.00;87.00;;;;;;1935613;74;21063;-47
2022/02/17 06:08:53;;;;;;;21.35;10.03;;;5.10;87.00;;;;;;1935669;74;21152;-47
2022/02/17 06:11:23;;;;;;;16.10;8.93;;;5.10;87.00;;;;;;1935656;74;21019;-48
2022/02/17 06:13:52;;;;;;;15.65;11.03;;;5.20;87.00;;;;;;1935778;74;21043;-47
2022/02/17 06:16:22;;;;;;;23.10;13.13;;;5.30;87.00;;;;;;1935664;74;21023;-47
2022/02/17 06:18:51;;;;;;;17.75;9.98;;;5.40;86.80;;;;;;1935638;74;21023;-49
2022/02/17 06:21:20;;;;;;;15.18;10.00;;;5.40;86.60;;;;;;1935599;74;21051;-47
2022/02/17 06:23:50;;;;;;;15.00;9.63;;;5.50;86.50;;;;;;1935552;74;21023;-48
2022/02/17 06:26:19;;;;;;;14.10;8.00;;;5.50;86.10;;;;;;1935663;74;21023;-47
2022/02/17 06:28:49;;;;;;;11.57;7.87;;;5.50;86.20;;;;;;1935587;74;21278;-48
2022/02/17 06:31:18;;;;;;;11.65;8.43;;;5.60;85.90;;;;;;1935497;74;21019;-48
2022/02/17 06:33:47;;;;;;;18.70;9.83;;;5.70;85.80;;;;;;1935660;74;21132;-47
2022/02/17 06:36:17;;;;;;;21.97;9.83;;;5.70;86.00;;;;;;1935522;74;21023;-47
2022/02/17 06:38:47;;;;;;;14.38;10.20;;;5.70;85.50;;;;;;1935582;74;21026;-47
2022/02/17 06:41:20;;;;;;;12.58;8.23;;;5.80;85.70;;;;;;1935691;74;21082;-47
2022/02/17 06:43:49;;;;;;;16.52;8.75;;;5.80;85.40;;;;;;1935548;73;21055;-48
2022/02/17 06:46:19;;;;;;;18.48;9.78;;;5.90;85.10;;;;;;1935682;74;21093;-48
2022/02/17 06:48:48;;;;;;;16.70;8.75;;;5.90;85.30;;;;;;1935615;74;21059;-48
2022/02/17 06:51:17;;;;;;;20.10;10.18;;;5.90;85.10;;;;;;1935551;74;21092;-47
2022/02/17 06:53:47;;;;;;;24.72;9.33;;;6.00;85.00;;;;;;1935661;74;21078;-46
2022/02/17 06:56:16;;;;;;;12.73;8.75;;;6.10;84.60;;;;;;1935550;74;21015;-47
2022/02/17 06:58:46;;;;;;;23.35;10.05;;;6.10;84.80;;;;;;1935667;74;21028;-47
2022/02/17 07:01:15;;;;;;;16.25;9.40;;;6.10;84.80;;;;;;1935655;74;21027;-48
2022/02/17 07:03:45;;;;;;;16.95;10.38;;;6.20;84.40;;;;;;1935519;74;21015;-47
2022/02/17 07:06:14;;;;;;;20.45;12.05;;;6.20;84.40;;;;;;1935561;74;21160;-48
2022/02/17 07:08:45;;;;;;;14.15;10.05;;;6.30;84.10;;;;;;1935549;74;21016;-48
2022/02/17 07:11:14;;;;;;;19.17;10.85;;;6.30;84.30;;;;;;1934803;74;21152;-48
2022/02/17 07:13:52;;;;;;;18.57;12.40;;;6.30;84.50;;;;;;1934094;74;21556;-48
2022/02/17 07:16:27;;;;;;;18.23;10.90;;;6.50;84.40;;;;;;1933904;74;21100;-47
2022/02/17 07:19:06;;;;;;;16.82;9.38;;;6.50;84.00;;;;;;1933664;74;21011;-47
2022/02/17 07:21:47;;;;;;;21.52;11.50;;;6.60;83.70;;;;;;1931643;74;22248;-47
2022/02/17 07:24:29;;;;;;;22.73;11.05;;;6.60;83.80;;;;;;1901084;73;21132;-47
2022/02/17 07:27:07;;;;;;;14.05;7.62;;;6.70;83.70;;;;;;1865511;75;21138;-49
2022/02/17 07:29:45;;;;;;;14.18;8.00;;;6.80;82.30;;;;;;1909952;74;21545;-47
2022/02/17 07:32:27;;;;;;;14.47;6.80;;;6.80;83.10;;;;;;1910958;73;21092;-48
2022/02/17 07:35:08;;;;;;;12.10;6.42;;;7.00;82.90;;;;;;1908944;74;21117;-49
2022/02/17 07:37:44;;;;;;;7.72;5.03;;;7.10;82.90;;;;;;1907381;74;21433;-49
2022/02/17 07:40:23;;;;;;;7.58;5.03;;;7.10;82.00;;;;;;1911282;74;21122;-49
2022/02/17 07:42:57;;;;;;;16.42;7.37;;;7.20;82.10;;;;;;1911008;74;21096;-47
2022/02/17 07:45:35;;;;;;;21.82;7.40;;;7.30;81.60;;;;;;1905659;74;20999;-48
2022/02/17 07:48:15;;;;;;;9.03;5.10;;;7.30;81.30;;;;;;1908241;74;21016;-50
2022/02/17 07:50:59;;;;;;;12.88;5.53;;;7.40;80.50;;;;;;1909485;74;21081;-48
2022/02/17 07:53:35;;;;;;;8.25;5.65;;;7.50;80.10;;;;;;1901920;75;21023;-49
2022/02/17 07:56:07;;;;;;;9.30;5.62;;;7.50;79.90;;;;;;1904054;74;21079;-50
2022/02/17 07:58:37;;;;;;;8.75;4.83;;;7.60;80.20;;;;;;1903571;75;21177;-54
2022/02/17 08:01:08;;;;;;;12.28;5.72;;;7.60;79.10;;;;;;1904375;75;21039;-51
2022/02/17 08:03:37;;;;;;;12.43;4.87;;;7.70;79.50;;;;;;1903650;74;21015;-48
2022/02/17 08:06:12;;;;;;;9.23;5.05;;;7.80;78.50;;;;;;1903557;75;21113;-52
2022/02/17 08:08:38;;;;;;;9.48;4.75;;;7.80;78.20;;;;;;1906422;74;21141;-48
2022/02/17 08:11:07;;;;;;;7.83;4.87;;;7.90;76.90;;;;;;1907913;75;21019;-52
2022/02/17 08:13:36;;;;;;;7.17;5.53;;;7.90;77.90;;;;;;1921329;73;21156;-55
2022/02/17 08:16:06;;;;;;;9.73;5.25;;;8.00;76.60;;;;;;1934231;74;21075;-51
2022/02/17 08:18:35;;;;;;;4.90;3.72;;;8.00;76.30;;;;;;1934394;74;21109;-54
2022/02/17 08:21:05;;;;;;;14.93;5.62;;;8.10;76.00;;;;;;1908105;74;21094;-53
2022/02/17 08:23:39;;;;;;;10.80;5.12;;;8.10;76.60;;;;;;1907873;73;21085;-49
2022/02/17 08:26:11;;;;;;;9.08;5.22;;;8.20;76.00;;;;;;1905854;73;21038;-50
2022/02/17 08:28:42;;;;;;;11.20;7.33;;;8.20;75.30;;;;;;1900511;75;21058;-53
2022/02/17 08:31:12;;;;;;;12.45;4.97;;;8.30;74.80;;;;;;1901245;75;21070;-48
2022/02/17 08:33:42;;;;;;;7.28;4.92;;;8.30;75.80;;;;;;1901059;75;21113;-53
2022/02/17 08:36:11;;;;;;;17.15;5.05;;;8.40;74.50;;;;;;1912274;74;21096;-54
2022/02/17 08:38:42;;;;;;;8.75;5.03;;;8.40;75.30;;;;;;1901181;75;21062;-55
2022/02/17 08:41:13;;;;;;;7.75;5.35;;;8.50;73.40;;;;;;1900419;75;21551;-51
2022/02/17 08:43:42;;;;;;;6.87;4.90;;;8.50;72.40;;;;;;1900937;75;21274;-48
2022/02/17 08:46:14;;;;;;;4.47;3.85;;;8.60;72.80;;;;;;1901106;75;21003;-54
2022/02/17 08:48:43;;;;;;;18.60;5.35;;;8.60;72.70;;;;;;1900850;75;21031;-53
2022/02/17 08:51:14;;;;;;;4.85;3.70;;;8.70;73.40;;;;;;1875931;75;21023;-51
2022/02/17 08:53:43;;;;;;;4.92;3.55;;;8.70;70.70;;;;;;1900960;75;21102;-54
2022/02/17 08:56:13;;;;;;;7.62;5.22;;;8.70;71.60;;;;;;1927561;74;21031;-51
2022/02/17 08:58:42;;;;;;;7.62;5.65;;;8.80;74.00;;;;;;1929216;74;21101;-53
2022/02/17 09:01:11;;;;;;;7.80;4.83;;;8.80;72.70;;;;;;1915162;74;21058;-54
2022/02/17 09:03:41;;;;;;;7.50;4.65;;;8.90;72.30;;;;;;1903681;75;21102;-51
2022/02/17 09:06:10;;;;;;;8.78;5.15;;;8.90;72.40;;;;;;1904178;75;21092;-52
2022/02/17 09:08:40;;;;;;;8.75;4.53;;;9.00;72.10;;;;;;1902555;75;21027;-57
2022/02/17 09:11:10;;;;;;;6.78;4.65;;;9.00;72.20;;;;;;1900812;75;21003;-57
2022/02/17 09:13:40;;;;;;;9.38;5.62;;;9.00;71.10;;;;;;1900967;75;21034;-56
2022/02/17 09:16:10;;;;;;;6.85;4.72;;;9.10;72.60;;;;;;1900509;75;21054;-56
2022/02/17 09:18:39;;;;;;;6.78;4.47;;;9.10;70.90;;;;;;1900649;75;21086;-56
2022/02/17 09:21:08;;;;;;;7.03;4.55;;;9.20;71.80;;;;;;1901157;75;21082;-55
2022/02/17 09:23:38;;;;;;;10.30;4.90;;;9.20;71.60;;;;;;1901034;75;21093;-54
2022/02/17 09:26:08;;;;;;;7.70;4.92;;;9.20;71.10;;;;;;1900877;75;21003;-53
2022/02/17 09:28:38;;;;;;;10.75;5.00;;;9.20;71.10;;;;;;1899480;75;21147;-53
2022/02/17 09:31:08;;;;;;;6.15;4.72;;;9.30;70.30;;;;;;1901031;75;21168;-55
2022/02/17 09:33:38;;;;;;;7.92;5.33;;;9.30;70.20;;;;;;1900140;75;21114;-55
2022/02/17 09:36:07;;;;;;;8.90;5.78;;;9.30;70.90;;;;;;1900766;75;21074;-52
2022/02/17 09:38:37;;;;;;;6.87;5.08;;;9.40;70.70;;;;;;1901240;75;21078;-54
2022/02/17 09:41:11;;;;;;;9.35;4.95;;;9.40;70.40;;;;;;1900993;75;21038;-53
2022/02/17 09:43:40;;;;;;;14.20;5.25;;;9.50;69.60;;;;;;1901209;75;21167;-54
2022/02/17 09:46:11;;;;;;;8.78;4.72;;;9.50;70.10;;;;;;1902834;75;21093;-55
2022/02/17 09:48:42;;;;;;;8.70;5.25;;;9.60;69.60;;;;;;1903392;74;21146;-55
2022/02/17 09:51:11;;;;;;;6.78;4.83;;;9.60;69.40;;;;;;1909599;74;21069;-52
2022/02/17 09:53:41;;;;;;;10.18;4.47;;;9.70;70.20;;;;;;1910422;74;21092;-57
2022/02/17 09:56:10;;;;;;;11.18;5.25;;;9.70;69.10;;;;;;1910659;75;21018;-54
2022/02/17 09:58:40;;;;;;;9.58;4.53;;;9.70;69.10;;;;;;1911044;75;21139;-56
2022/02/17 10:01:15;;;;;;;8.80;4.37;;;9.80;68.40;;;;;;1910874;75;21077;-53
2022/02/17 10:03:45;;;;;;;3.90;3.42;;;9.80;67.00;;;;;;1910887;74;21085;-55
2022/02/17 10:06:16;;;;;;;9.35;4.97;;;9.80;66.20;;;;;;1910809;74;21046;-50
2022/02/17 10:08:47;;;;;;;8.63;4.80;;;9.90;66.20;;;;;;1910678;74;21150;-53
2022/02/17 10:11:29;;;;;;;11.05;5.12;;;9.90;67.40;;;;;;1910851;75;21086;-50
2022/02/17 10:14:10;;;;;;;6.33;4.70;;;9.90;66.60;;;;;;1910863;75;21150;-54
2022/02/17 10:16:57;;;;;;;10.63;5.17;;;10.00;66.80;;;;;;1910769;74;21021;-54
2022/02/17 10:19:35;;;;;;;55.45;9.70;;;10.00;66.80;;;;;;1910375;75;21175;-56
2022/02/17 10:22:10;;;;;;;9.18;5.75;;;10.10;65.20;;;;;;1910391;74;21002;-51
2022/02/17 10:24:42;;;;;;;6.95;5.67;;;10.10;64.50;;;;;;1910401;74;21017;-50
2022/02/17 10:27:15;;;;;;;40.92;8.10;;;10.20;65.80;;;;;;1910533;75;21061;-53
2022/02/17 10:30:02;;;;;;;6.33;4.80;;;10.30;65.00;;;;;;1889864;75;21088;-56
2022/02/17 10:32:32;;;;;;;22.30;5.87;;;10.30;65.00;;;;;;1850360;76;21467;-54
2022/02/17 10:35:12;;;;;;;16.42;5.60;;;10.30;65.40;;;;;;1857485;77;21033;-56
2022/02/17 10:37:53;;;;;;;21.17;6.28;;;10.40;65.50;;;;;;1892157;75;21109;-53
2022/02/17 10:40:24;;;;;;;9.50;5.67;;;10.30;64.70;;;;;;1902622;75;21090;-54
2022/02/17 10:43:12;;;;;;;8.78;5.00;;;10.40;64.20;;;;;;1896479;75;21148;-54
2022/02/17 10:45:43;;;;;;;8.18;5.15;;;10.40;64.70;;;;;;1886274;75;21094;-53
2022/02/17 10:48:24;;;;;;;7.97;5.85;;;10.40;64.60;;;;;;1904238;75;21118;-52
2022/02/17 10:51:16;;;;;;;10.82;6.22;;;10.40;65.00;;;;;;1911177;75;21126;-49
2022/02/17 10:53:50;;;;;;;9.25;5.78;;;10.40;64.40;;;;;;1910384;75;21099;-51
2022/02/17 10:56:24;;;;;;;8.80;5.65;;;10.40;64.70;;;;;;1909792;75;21110;-50
2022/02/17 10:58:54;;;;;;;12.40;5.80;;;10.50;65.40;;;;;;1911803;75;21078;-54
2022/02/17 11:01:24;;;;;;;6.37;5.22;;;10.50;64.80;;;;;;1911638;75;21548;-48
2022/02/17 11:03:54;;;;;;;5.87;4.12;;;10.50;64.20;;;;;;1933532;74;21074;-55
2022/02/17 11:06:23;;;;;;;9.03;6.12;;;10.50;63.70;;;;;;1947852;74;21074;-52
2022/02/17 11:08:53;;;;;;;9.20;5.70;;;10.50;65.20;;;;;;1947724;74;22125;-52
2022/02/17 11:11:24;;;;;;;9.68;5.80;;;10.50;64.30;;;;;;1928247;74;21148;-51
2022/02/17 11:13:54;;;;;;;16.30;6.83;;;10.50;65.20;;;;;;1914289;74;21097;-56
2022/02/17 11:16:25;;;;;;;8.55;5.50;;;10.50;65.40;;;;;;1913426;75;21143;-55
2022/02/17 11:18:58;;;;;;;9.30;6.30;;;10.60;65.00;;;;;;1915067;74;21156;-54
2022/02/17 11:21:28;;;;;;;9.93;6.10;;;10.60;64.50;;;;;;1913770;75;21131;-52
2022/02/17 11:24:01;;;;;;;12.85;6.37;;;10.60;64.90;;;;;;1913747;75;21059;-52
2022/02/17 11:26:35;;;;;;;10.03;6.80;;;10.60;64.60;;;;;;1913889;75;21019;-56
2022/02/17 11:29:25;;;;;;;9.38;5.60;;;10.50;64.20;;;;;;1913780;75;21043;-56
2022/02/17 11:32:02;;;;;;;12.10;5.85;;;10.60;64.90;;;;;;1913646;75;21047;-49
2022/02/17 11:34:51;;;;;;;13.88;6.35;;;10.50;63.80;;;;;;1914231;75;21043;-56
2022/02/17 11:37:32;;;;;;;10.95;6.28;;;10.50;63.90;;;;;;1914269;75;21105;-56
2022/02/17 11:40:08;;;;;;;12.03;6.17;;;10.60;64.50;;;;;;1914472;75;21535;-55
2022/02/17 11:42:42;;;;;;;8.40;6.22;;;10.50;63.00;;;;;;1926438;74;21446;-55
2022/02/17 11:45:15;;;;;;;14.45;7.15;;;10.50;63.10;;;;;;1941530;73;21137;-55
2022/02/17 11:48:08;;;;;;;10.78;6.72;;;10.50;63.00;;;;;;1942771;73;21070;-55
2022/02/17 11:50:48;;;;;;;10.95;6.85;;;10.50;61.90;;;;;;1948649;74;21108;-55
2022/02/17 11:53:32;;;;;;;13.48;6.20;;;10.40;62.80;;;;;;1948519;74;21019;-55
2022/02/17 11:56:16;;;;;;;10.40;6.05;;;10.30;62.20;;;;;;1948511;74;21450;-55
2022/02/17 11:58:51;;;;;;;17.77;6.85;;;10.40;62.70;;;;;;1948839;74;21081;-56
2022/02/17 12:01:27;;;;;;;12.18;6.28;;;10.40;62.40;;;;;;1948684;74;21034;-56
2022/02/17 12:04:09;;;;;;;10.18;6.62;;;10.30;61.30;;;;;;1948525;74;21121;-55
2022/02/17 12:06:48;;;;;;;13.03;5.37;;;10.30;60.60;;;;;;1915389;74;21034;-56
2022/02/17 12:09:39;;;;;;;11.55;6.80;;;10.30;59.00;;;;;;1931684;74;21010;-55
2022/02/17 12:12:28;;;;;;;14.50;7.33;;;10.20;59.00;;;;;;1946901;74;21126;-56
2022/02/17 12:15:04;;;;;;;13.68;7.35;;;10.20;59.20;;;;;;1946608;73;21552;-56
2022/02/17 12:17:36;;;;;;;12.85;7.60;;;10.10;59.70;;;;;;1946114;74;21190;-55
2022/02/17 12:20:11;;;;;;;17.45;6.25;;;10.10;59.60;;;;;;1948571;74;21026;-55
2022/02/17 12:22:58;;;;;;;12.50;6.58;;;10.10;59.30;;;;;;1947124;74;22295;-56
2022/02/17 12:25:30;;;;;;;11.20;6.53;;;10.10;59.60;;;;;;1946754;74;21098;-56
2022/02/17 12:28:02;;;;;;;9.23;5.22;;;10.00;59.50;;;;;;1947733;74;21092;-55
2022/02/17 12:30:39;;;;;;;13.08;7.60;;;10.00;58.50;;;;;;1947903;74;20991;-55
2022/02/17 12:33:14;;;;;;;11.85;7.22;;;10.00;59.60;;;;;;1947870;74;21031;-55
2022/02/17 12:36:02;;;;;;;7.28;4.65;;;10.00;60.10;;;;;;1947987;73;21046;-55
2022/02/17 12:38:33;;;;;;;14.73;8.05;;;10.00;59.60;;;;;;1948453;74;21035;-55
2022/02/17 12:41:08;;;;;;;15.58;8.75;;;10.00;61.00;;;;;;1948687;74;21082;-55
2022/02/17 12:43:39;;;;;;;12.43;8.28;;;9.90;61.10;;;;;;1948944;74;21191;-55
2022/02/17 12:46:19;;;;;;;11.63;7.70;;;9.90;60.80;;;;;;1948695;73;21019;-56
2022/02/17 12:48:46;;;;;;;8.78;6.53;;;9.90;61.20;;;;;;1943649;74;21059;-56
2022/02/17 12:51:33;;;;;;;12.55;7.75;;;9.90;61.10;;;;;;1935579;74;21101;-56
2022/02/17 12:54:04;;;;;;;10.98;7.60;;;9.90;61.90;;;;;;1935674;74;21035;-55
2022/02/17 12:56:35;;;;;;;11.90;7.35;;;9.90;62.00;;;;;;1935615;74;21109;-55
2022/02/17 12:59:16;;;;;;;28.85;10.78;;;9.90;62.20;;;;;;1935586;74;21027;-55
2022/02/17 13:01:50;;;;;;;14.45;8.88;;;10.00;61.90;;;;;;1935542;74;21093;-55
2022/02/17 13:04:19;;;;;;;10.13;6.78;;;10.00;61.30;;;;;;1935649;74;21023;-55
2022/02/17 13:06:48;;;;;;;9.43;6.58;;;9.90;61.60;;;;;;1935729;74;21101;-55
2022/02/17 13:09:20;;;;;;;12.20;7.12;;;9.90;61.70;;;;;;1935593;74;21024;-55
2022/02/17 13:11:53;;;;;;;12.37;8.25;;;9.80;61.70;;;;;;1934630;74;21477;-55